createdAt,value
2023-01-17T00:00:32.956Z,90082.63
2023-01-17T00:02:59.454Z,90094.75
2023-01-17T00:06:01.354Z,90091.19
2023-01-17T00:08:47.235Z,90093.81
2023-01-17T00:11:13.627Z,90100.75
2023-01-17T00:13:40.020Z,90097.69
2023-01-17T00:16:06.798Z,90106.97
2023-01-17T00:18:33.362Z,90101.03
2023-01-17T00:21:18.159Z,90110.31
2023-01-17T00:24:02.955Z,90100.03
2023-01-17T00:26:31.279Z,90095.13
2023-01-17T00:28:57.701Z,90095.63
2023-01-17T00:31:24.279Z,90097.69
2023-01-17T00:33:50.671Z,90095.13
2023-01-17T00:36:17.067Z,90086.09
2023-01-17T00:38:43.456Z,90095.66
2023-01-17T00:41:12.448Z,90095.38
2023-01-17T00:43:57.866Z,90095.38
2023-01-17T00:46:43.298Z,90091.00
2023-01-17T00:49:28.452Z,90086.34
2023-01-17T00:52:13.241Z,90085.81
2023-01-17T00:54:58.131Z,90087.91
2023-01-17T00:57:43.034Z,90082.22
2023-01-17T01:00:28.447Z,90087.91
2023-01-17T01:03:13.494Z,90086.34
2023-01-17T01:05:58.292Z,90084.28
2023-01-17T01:08:45.286Z,90089.97
2023-01-17T01:11:31.559Z,90087.94
2023-01-17T01:14:18.340Z,90094.09
2023-01-17T01:17:03.143Z,90097.47
2023-01-17T01:19:47.780Z,90098.25
2023-01-17T01:22:33.247Z,90099.03
2023-01-17T01:25:18.206Z,90100.06
2023-01-17T01:28:03.708Z,90105.72
2023-01-17T01:30:48.970Z,90112.16
2023-01-17T01:33:18.952Z,90119.66
2023-01-17T01:35:55.277Z,90124.00
2023-01-17T01:38:23.914Z,90122.97
2023-01-17T01:40:53.579Z,90125.03
2023-01-17T01:43:39.684Z,90126.84
2023-01-17T01:46:07.352Z,90126.59
2023-01-17T01:48:37.984Z,90118.59
2023-01-17T01:51:09.655Z,90122.97
2023-01-17T01:53:40.335Z,90125.03
2023-01-17T01:56:11.987Z,90119.88
2023-01-17T01:58:40.907Z,90115.78
2023-01-17T02:01:09.204Z,90119.63
2023-01-17T02:03:39.770Z,90113.72
2023-01-17T02:06:25.694Z,90112.91
2023-01-17T02:08:52.503Z,90111.88
2023-01-17T02:11:19.092Z,90108.56
2023-01-17T02:13:45.587Z,90106.50
2023-01-17T02:16:33.374Z,90115.75
2023-01-17T02:19:11.716Z,90117.59
2023-01-17T02:21:45.033Z,90119.13
2023-01-17T02:24:24.852Z,90110.59
2023-01-17T02:26:56.795Z,90111.13
2023-01-17T02:29:38.219Z,90111.13
2023-01-17T02:32:16.658Z,90118.59
2023-01-17T02:34:51.163Z,90107.78
2023-01-17T02:37:24.736Z,90109.34
2023-01-17T02:40:04.723Z,90099.53
2023-01-17T02:42:42.193Z,90104.44
2023-01-17T02:45:09.108Z,90099.78
2023-01-17T02:47:35.621Z,90102.38
2023-01-17T02:50:36.584Z,90109.81
2023-01-17T02:53:43.012Z,90108.28
2023-01-17T02:56:26.048Z,90105.69
2023-01-17T02:59:20.987Z,90098.47
2023-01-17T03:02:14.938Z,90103.09
2023-01-17T03:05:12.367Z,90096.66
2023-01-17T03:07:41.692Z,90097.41
2023-01-17T03:10:10.286Z,90087.63
2023-01-17T03:12:38.806Z,90088.91
2023-01-17T03:15:11.874Z,90089.44
2023-01-17T03:17:40.869Z,90089.44
2023-01-17T03:20:07.982Z,90083.25
2023-01-17T03:22:34.415Z,90089.97
2023-01-17T03:25:00.887Z,90086.34
2023-01-17T03:27:27.373Z,90089.94
2023-01-17T03:29:53.796Z,90087.38
2023-01-17T03:32:20.215Z,90085.06
2023-01-17T03:34:46.688Z,90091.00
2023-01-17T03:37:13.124Z,90085.81
2023-01-17T03:39:39.589Z,90083.00
2023-01-17T03:42:06.114Z,90081.97
2023-01-17T03:44:34.128Z,90075.53
2023-01-17T03:47:00.552Z,90083.25
2023-01-17T03:49:26.987Z,90076.56
2023-01-17T03:51:53.445Z,90076.31
2023-01-17T03:54:19.912Z,90085.84
2023-01-17T03:56:46.372Z,90085.34
2023-01-17T03:59:13.321Z,90086.66
2023-01-17T04:01:40.022Z,90094.09
2023-01-17T04:04:06.513Z,90087.41
2023-01-17T04:06:32.921Z,90086.66
2023-01-17T04:08:59.336Z,90083.78
2023-01-17T04:11:25.764Z,90078.91
2023-01-17T04:13:52.201Z,90075.53
2023-01-17T04:16:19.114Z,90073.50
2023-01-17T04:18:45.731Z,90072.19
2023-01-17T04:21:12.161Z,90071.16
2023-01-17T04:23:38.649Z,90067.78
2023-01-17T04:26:05.380Z,90053.88
2023-01-17T04:28:31.906Z,90063.69
2023-01-17T04:30:59.675Z,90056.47
2023-01-17T04:33:26.244Z,90063.66
2023-01-17T04:35:53.903Z,90058.75
2023-01-17T04:38:20.448Z,90063.16
2023-01-17T04:40:46.891Z,90052.06
2023-01-17T04:43:13.307Z,90055.44
2023-01-17T04:45:39.791Z,90049.25
2023-01-17T04:48:06.762Z,90047.41
2023-01-17T04:50:33.537Z,90044.09
2023-01-17T04:53:00.537Z,90038.13
2023-01-17T04:55:27.210Z,90038.94
2023-01-17T04:57:54.521Z,90035.31
2023-01-17T05:00:23.898Z,90032.72
2023-01-17T05:02:52.011Z,90025.75
2023-01-17T05:05:18.515Z,90025.75
2023-01-17T05:07:52.260Z,90024.22
2023-01-17T05:10:18.673Z,90021.69
2023-01-17T05:12:53.521Z,90020.41
2023-01-17T05:15:19.925Z,90017.31
2023-01-17T05:17:46.374Z,90019.13
2023-01-17T05:20:12.829Z,90011.38
2023-01-17T05:22:39.278Z,90018.91
2023-01-17T05:25:06.141Z,90023.78
2023-01-17T05:27:32.586Z,90016.06
2023-01-17T05:29:59.033Z,90011.16
2023-01-17T05:32:25.619Z,90004.22
2023-01-17T05:34:52.040Z,90004.47
2023-01-17T05:37:18.473Z,89996.22
2023-01-17T05:39:44.932Z,89986.97
2023-01-17T05:42:11.342Z,89990.06
2023-01-17T05:44:38.589Z,89994.69
2023-01-17T05:47:05.199Z,90004.97
2023-01-17T05:49:31.684Z,89997.75
2023-01-17T05:51:58.121Z,89986.66
2023-01-17T05:54:24.628Z,89989.22
2023-01-17T05:56:51.059Z,89986.38
2023-01-17T05:59:28.600Z,89981.22
2023-01-17T06:02:02.573Z,89980.69
2023-01-17T06:04:29.257Z,89980.41
2023-01-17T06:06:55.713Z,89980.66
2023-01-17T06:09:22.171Z,89972.38
2023-01-17T06:11:48.583Z,89975.47
2023-01-17T06:14:15.027Z,89978.78
2023-01-17T06:16:41.468Z,89977.00
2023-01-17T06:19:09.445Z,89978.47
2023-01-17T06:21:35.916Z,89977.69
2023-01-17T06:24:04.181Z,89971.25
2023-01-17T06:26:30.795Z,89968.13
2023-01-17T06:28:57.208Z,89959.16
2023-01-17T06:31:23.719Z,89961.44
2023-01-17T06:33:50.205Z,89962.97
2023-01-17T06:36:16.692Z,89958.84
2023-01-17T06:38:43.140Z,89958.28
2023-01-17T06:41:09.682Z,89975.72
2023-01-17T06:43:36.171Z,89971.38
2023-01-17T06:46:02.617Z,89969.53
2023-01-17T06:48:29.058Z,89979.81
2023-01-17T06:50:57.600Z,89987.50
2023-01-17T06:53:24.031Z,89978.19
2023-01-17T06:55:50.535Z,89978.97
2023-01-17T06:58:16.945Z,89974.59
2023-01-17T07:00:44.544Z,89980.72
2023-01-17T07:03:37.776Z,89984.81
2023-01-17T07:06:05.568Z,89980.50
2023-01-17T07:08:32.660Z,89986.09
2023-01-17T07:11:01.437Z,89969.94
2023-01-17T07:13:28.377Z,89963.25
2023-01-17T07:15:55.120Z,89965.84
2023-01-17T07:18:23.413Z,89962.75
2023-01-17T07:20:50.541Z,89958.38
2023-01-17T07:23:18.112Z,89962.75
2023-01-17T07:25:44.631Z,89956.53
2023-01-17T07:28:11.091Z,89954.53
2023-01-17T07:30:37.528Z,89957.09
2023-01-17T07:33:04.003Z,89952.97
2023-01-17T07:35:30.409Z,89950.41
2023-01-17T07:37:56.804Z,89945.81
2023-01-17T07:40:23.741Z,89946.63
2023-01-17T07:42:50.144Z,89951.00
2023-01-17T07:45:16.773Z,89953.63
2023-01-17T07:47:43.724Z,89955.13
2023-01-17T07:50:11.324Z,89956.91
2023-01-17T07:52:37.747Z,89957.94
2023-01-17T07:55:05.000Z,89965.41
2023-01-17T07:57:32.539Z,89963.91
2023-01-17T08:00:00.013Z,89959.31
2023-01-17T08:02:26.434Z,89963.13
2023-01-17T08:04:52.941Z,89965.69
2023-01-17T08:07:19.384Z,89955.19
2023-01-17T08:09:49.602Z,89955.19
2023-01-17T08:12:16.710Z,89965.47
2023-01-17T08:14:43.163Z,89958.03
2023-01-17T08:17:13.421Z,89955.47
2023-01-17T08:19:39.855Z,89951.09
2023-01-17T08:22:06.638Z,89954.97
2023-01-17T08:24:33.283Z,89940.06
2023-01-17T08:27:00.259Z,89935.94
2023-01-17T08:29:26.710Z,89932.66
2023-01-17T08:32:14.351Z,89932.13
2023-01-17T08:34:42.000Z,89923.41
2023-01-17T08:37:08.573Z,89917.53
2023-01-17T08:39:35.016Z,89911.41
2023-01-17T08:42:01.536Z,89907.06
2023-01-17T08:44:28.010Z,89897.06
2023-01-17T08:46:54.449Z,89895.25
2023-01-17T08:49:20.917Z,89897.59
2023-01-17T08:51:47.416Z,89897.88
2023-01-17T08:54:15.259Z,89890.16
2023-01-17T08:56:44.541Z,89888.09
2023-01-17T08:59:11.823Z,89885.00
2023-01-17T09:01:41.654Z,89879.38
2023-01-17T09:04:09.060Z,89879.38
2023-01-17T09:06:45.418Z,89864.44
2023-01-17T09:09:11.818Z,89847.47
2023-01-17T09:11:38.419Z,89855.72
2023-01-17T09:14:04.923Z,89854.69
2023-01-17T09:16:32.030Z,89855.19
2023-01-17T09:18:59.057Z,89861.59
2023-01-17T09:21:26.774Z,89867.25
2023-01-17T09:23:53.336Z,89863.91
2023-01-17T09:26:25.439Z,89858.78
2023-01-17T09:28:52.207Z,89863.16
2023-01-17T09:31:20.821Z,89860.34
2023-01-17T09:33:48.739Z,89856.22
2023-01-17T09:36:15.546Z,89860.84
2023-01-17T09:38:42.459Z,89857.50
2023-01-17T09:41:24.021Z,89853.63
2023-01-17T09:43:56.605Z,89850.28
2023-01-17T09:46:27.864Z,89850.53
2023-01-17T09:49:13.195Z,89853.06
2023-01-17T09:51:39.894Z,89857.91
2023-01-17T09:54:21.997Z,89863.28
2023-01-17T09:56:58.918Z,89872.78
2023-01-17T09:59:36.877Z,89857.00
2023-01-17T10:02:26.519Z,89857.47
2023-01-17T10:05:11.627Z,89872.91
2023-01-17T10:08:22.739Z,89876.47
2023-01-17T10:11:11.038Z,89862.28
2023-01-17T10:14:08.827Z,89864.06
2023-01-17T10:17:04.197Z,89867.63
2023-01-17T10:19:44.645Z,89866.56
2023-01-17T10:22:30.940Z,89861.06
2023-01-17T10:25:12.984Z,89849.91
2023-01-17T10:27:56.511Z,89848.38
2023-01-17T10:30:33.652Z,89839.59
2023-01-17T10:33:06.000Z,89837.50
2023-01-17T10:35:37.980Z,89831.97
2023-01-17T10:38:11.857Z,89814.59
2023-01-17T10:40:46.600Z,89820.44
2023-01-17T10:43:21.969Z,89821.84
2023-01-17T10:45:53.144Z,89812.19
2023-01-17T10:48:42.765Z,89797.28
2023-01-17T10:51:27.840Z,89796.41
2023-01-17T10:54:16.105Z,89799.38
2023-01-17T10:56:42.685Z,89791.97
2023-01-17T10:59:18.111Z,89779.00
2023-01-17T11:01:44.931Z,89770.69
2023-01-17T11:04:23.887Z,89770.13
2023-01-17T11:07:12.357Z,89762.25
2023-01-17T11:09:44.111Z,89757.00
2023-01-17T11:12:22.491Z,89763.94
2023-01-17T11:15:09.102Z,89753.50
2023-01-17T11:17:57.133Z,89754.69
2023-01-17T11:20:32.688Z,89749.91
2023-01-17T11:23:31.387Z,89743.13
2023-01-17T11:26:02.663Z,89731.94
2023-01-17T11:28:31.726Z,89728.78
2023-01-17T11:31:00.959Z,89717.59
2023-01-17T11:33:47.942Z,89718.16
2023-01-17T11:36:16.032Z,89720.47
2023-01-17T11:39:13.924Z,89714.38
2023-01-17T11:41:41.880Z,89708.91
2023-01-17T11:44:29.170Z,89704.38
2023-01-17T11:47:13.690Z,89701.69
2023-01-17T11:49:42.733Z,89689.59
2023-01-17T11:52:11.255Z,89691.03
2023-01-17T11:54:40.392Z,89697.47
2023-01-17T11:57:22.575Z,89693.72
2023-01-17T11:59:49.739Z,89698.84
2023-01-17T12:02:38.003Z,89706.53
2023-01-17T12:05:26.905Z,89704.50
2023-01-17T12:08:04.181Z,89700.38
2023-01-17T12:10:50.290Z,89699.50
2023-01-17T12:14:01.142Z,89708.81
2023-01-17T12:16:45.947Z,89697.69
2023-01-17T12:19:27.737Z,89696.84
2023-01-17T12:22:01.191Z,89692.53
2023-01-17T12:24:48.654Z,89693.38
2023-01-17T12:27:38.487Z,89690.66
2023-01-17T12:30:18.259Z,89691.34
2023-01-17T12:33:12.040Z,89679.28
2023-01-17T12:35:44.531Z,89658.78
2023-01-17T12:38:31.758Z,89657.63
2023-01-17T12:41:16.803Z,89647.09
2023-01-17T12:43:44.458Z,89651.69
2023-01-17T12:46:32.451Z,89649.25
2023-01-17T12:49:15.343Z,89641.50
2023-01-17T12:51:47.375Z,89639.00
2023-01-17T12:54:23.024Z,89633.63
2023-01-17T12:56:55.847Z,89633.81
2023-01-17T13:00:00.467Z,89620.78
2023-01-17T13:02:41.531Z,89616.06
2023-01-17T13:05:26.635Z,89610.41
2023-01-17T13:08:05.022Z,89612.31
2023-01-17T13:10:39.663Z,89607.13
2023-01-17T13:13:22.364Z,89614.69
2023-01-17T13:16:04.258Z,89611.72
2023-01-17T13:18:33.171Z,89614.03
2023-01-17T13:21:27.045Z,89620.53
2023-01-17T13:23:59.501Z,89617.69
2023-01-17T13:26:36.553Z,89612.50
2023-01-17T13:29:30.089Z,89609.72
2023-01-17T13:32:23.842Z,89613.94
2023-01-17T13:35:11.382Z,89608.97
2023-01-17T13:37:45.898Z,89609.34
2023-01-17T13:40:33.787Z,89610.41
2023-01-17T13:43:18.207Z,89606.94
2023-01-17T13:46:03.135Z,89599.69
2023-01-17T13:48:32.291Z,89606.00
2023-01-17T13:51:06.520Z,89603.41
2023-01-17T13:53:36.715Z,89602.88
2023-01-17T13:56:18.406Z,89608.69
2023-01-17T13:58:58.286Z,89604.31
2023-01-17T14:01:25.063Z,89597.50
2023-01-17T14:03:52.692Z,89595.47
2023-01-17T14:06:37.634Z,89597.38
2023-01-17T14:09:19.520Z,89604.28
2023-01-17T14:12:06.275Z,89604.25
2023-01-17T14:14:41.913Z,89597.22
2023-01-17T14:17:25.562Z,89602.41
2023-01-17T14:19:55.036Z,89610.75
2023-01-17T14:22:21.541Z,89607.81
2023-01-17T14:24:59.777Z,89606.44
2023-01-17T14:27:28.478Z,89615.09
2023-01-17T14:29:59.030Z,89620.75
2023-01-17T14:32:35.469Z,89622.06
2023-01-17T14:35:03.528Z,89631.66
2023-01-17T14:37:32.961Z,89623.94
2023-01-17T14:40:00.703Z,89625.00
2023-01-17T14:42:30.600Z,89626.34
2023-01-17T14:45:06.676Z,89627.66
2023-01-17T14:47:38.027Z,89630.00
2023-01-17T14:50:12.845Z,89627.66
2023-01-17T14:52:39.783Z,89623.63
2023-01-17T14:55:19.221Z,89624.19
2023-01-17T14:57:56.828Z,89630.69
2023-01-17T15:00:25.695Z,89624.25
2023-01-17T15:02:56.717Z,89618.03
2023-01-17T15:05:25.967Z,89615.41
2023-01-17T15:07:57.733Z,89613.38
2023-01-17T15:10:29.829Z,89615.53
2023-01-17T15:12:58.955Z,89606.31
2023-01-17T15:15:38.351Z,89605.88
2023-01-17T15:18:29.551Z,89602.41
2023-01-17T15:21:02.711Z,89606.59
2023-01-17T15:23:34.654Z,89604.59
2023-01-17T15:26:03.357Z,89604.06
2023-01-17T15:28:30.509Z,89605.97
2023-01-17T15:31:14.967Z,89604.22
2023-01-17T15:33:45.208Z,89602.69
2023-01-17T15:36:21.043Z,89590.88
2023-01-17T15:39:15.150Z,89595.94
2023-01-17T15:41:41.783Z,89594.69
2023-01-17T15:44:33.396Z,89590.03
2023-01-17T15:47:31.452Z,89594.47
2023-01-17T15:49:59.753Z,89599.09
2023-01-17T15:52:26.983Z,89602.56
2023-01-17T15:54:58.894Z,89603.94
2023-01-17T15:57:37.255Z,89604.75
2023-01-17T16:00:13.416Z,89608.66
2023-01-17T16:02:55.256Z,89603.00
2023-01-17T16:05:22.316Z,89614.94
2023-01-17T16:07:54.557Z,89609.53
2023-01-17T16:10:22.601Z,89598.66
2023-01-17T16:12:54.045Z,89601.03
2023-01-17T16:15:22.120Z,89599.22
2023-01-17T16:17:52.595Z,89599.00
2023-01-17T16:20:23.179Z,89594.66
2023-01-17T16:22:50.332Z,89587.97
2023-01-17T16:25:20.339Z,89602.38
2023-01-17T16:27:48.239Z,89601.63
2023-01-17T16:30:17.921Z,89602.69
2023-01-17T16:32:49.081Z,89615.56
2023-01-17T16:35:20.814Z,89618.47
2023-01-17T16:37:52.518Z,89623.09
2023-01-17T16:40:20.969Z,89630.81
2023-01-17T16:42:47.917Z,89636.69
2023-01-17T16:45:15.727Z,89639.50
2023-01-17T16:47:44.467Z,89629.72
2023-01-17T16:50:13.263Z,89636.94
2023-01-17T16:52:40.613Z,89645.44
2023-01-17T16:55:12.305Z,89638.50
2023-01-17T16:57:38.898Z,89639.06
2023-01-17T17:00:07.011Z,89637.03
2023-01-17T17:02:34.163Z,89647.34
2023-01-17T17:05:00.862Z,89648.94
2023-01-17T17:07:27.435Z,89645.31
2023-01-17T17:09:53.958Z,89649.91
2023-01-17T17:12:20.587Z,89656.06
2023-01-17T17:14:47.205Z,89655.56
2023-01-17T17:17:13.907Z,89645.53
2023-01-17T17:19:40.499Z,89652.00
2023-01-17T17:22:07.176Z,89649.91
2023-01-17T17:24:34.065Z,89643.44
2023-01-17T17:27:00.747Z,89645.03
2023-01-17T17:29:27.347Z,89646.53
2023-01-17T17:31:53.947Z,89642.44
2023-01-17T17:34:22.457Z,89650.72
2023-01-17T17:36:49.016Z,89664.63
2023-01-17T17:39:15.814Z,89645.03
2023-01-17T17:41:45.569Z,89643.78
2023-01-17T17:44:12.499Z,89663.84
2023-01-17T17:46:39.076Z,89678.34
2023-01-17T17:49:08.859Z,89666.75
2023-01-17T17:51:38.085Z,89651.56
2023-01-17T17:54:07.550Z,89635.53
2023-01-17T17:56:35.963Z,89655.38
2023-01-17T17:59:04.781Z,89676.31
2023-01-17T18:01:31.501Z,89677.16
2023-01-17T18:04:02.288Z,89656.47
2023-01-17T18:06:29.256Z,89658.03
2023-01-17T18:08:55.872Z,89692.28
2023-01-17T18:11:25.898Z,89694.88
2023-01-17T18:13:54.839Z,89660.34
2023-01-17T18:16:27.844Z,89667.53
2023-01-17T18:18:56.987Z,89687.63
2023-01-17T18:21:37.409Z,89696.38
2023-01-17T18:24:10.274Z,89694.31
2023-01-17T18:26:45.101Z,89694.25
2023-01-17T18:29:17.728Z,89686.03
2023-01-17T18:31:45.714Z,89699.19
2023-01-17T18:34:15.426Z,89693.53
2023-01-17T18:36:43.003Z,89685.03
2023-01-17T18:39:12.757Z,89694.81
2023-01-17T18:41:39.603Z,89696.34
2023-01-17T18:44:07.072Z,89706.66
2023-01-17T18:46:34.249Z,89699.19
2023-01-17T18:49:01.189Z,89703.59
2023-01-17T18:51:31.802Z,89702.84
2023-01-17T18:54:02.658Z,89692.00
2023-01-17T18:56:30.871Z,89691.72
2023-01-17T18:58:58.002Z,89702.03
2023-01-17T19:01:27.418Z,89701.00
2023-01-17T19:03:59.874Z,89704.84
2023-01-17T19:06:32.237Z,89697.63
2023-01-17T19:08:59.355Z,89706.59
2023-01-17T19:11:27.627Z,89695.78
2023-01-17T19:13:55.517Z,89701.94
2023-01-17T19:16:25.060Z,89695.47
2023-01-17T19:18:52.781Z,89695.22
2023-01-17T19:21:21.591Z,89691.63
2023-01-17T19:23:48.724Z,89699.09
2023-01-17T19:26:17.186Z,89695.47
2023-01-17T19:28:45.763Z,89698.31
2023-01-17T19:31:20.434Z,89699.66
2023-01-17T19:33:48.706Z,89691.91
2023-01-17T19:36:18.593Z,89692.66
2023-01-17T19:38:58.766Z,89691.91
2023-01-17T19:41:30.702Z,89698.91
2023-01-17T19:43:59.274Z,89703.31
2023-01-17T19:46:27.517Z,89706.09
2023-01-17T19:48:55.577Z,89701.94
2023-01-17T19:51:23.367Z,89700.63
2023-01-17T19:53:50.316Z,89693.16
2023-01-17T19:56:19.347Z,89691.91
2023-01-17T19:58:46.904Z,89687.50
2023-01-17T20:01:28.557Z,89680.06
2023-01-17T20:03:57.923Z,89680.31
2023-01-17T20:06:27.368Z,89678.78
2023-01-17T20:08:53.905Z,89679.09
2023-01-17T20:11:22.804Z,89688.66
2023-01-17T20:13:53.998Z,89686.34
2023-01-17T20:16:21.326Z,89689.19
2023-01-17T20:18:47.952Z,89694.56
2023-01-17T20:21:23.139Z,89696.59
2023-01-17T20:23:50.867Z,89698.44
2023-01-17T20:26:22.763Z,89700.75
2023-01-17T20:28:51.396Z,89702.50
2023-01-17T20:31:20.964Z,89700.41
2023-01-17T20:33:50.282Z,89707.16
2023-01-17T20:36:18.863Z,89706.09
2023-01-17T20:38:46.279Z,89708.44
2023-01-17T20:41:20.016Z,89707.16
2023-01-17T20:43:52.328Z,89709.72
2023-01-17T20:46:20.356Z,89704.56
2023-01-17T20:48:49.244Z,89702.53
2023-01-17T20:51:17.035Z,89703.03
2023-01-17T20:53:45.280Z,89705.13
2023-01-17T20:56:14.047Z,89705.91
2023-01-17T20:58:41.173Z,89706.66
2023-01-17T21:01:09.784Z,89704.06
2023-01-17T21:03:37.777Z,89705.13
2023-01-17T21:06:09.438Z,89709.22
2023-01-17T21:08:40.937Z,89707.16
2023-01-17T21:11:10.360Z,89708.19
2023-01-17T21:13:36.817Z,89702.00
2023-01-17T21:16:03.626Z,89716.91
2023-01-17T21:18:36.243Z,89708.13
2023-01-17T21:21:08.616Z,89705.03
2023-01-17T21:23:36.078Z,89703.47
2023-01-17T21:26:03.855Z,89706.06
2023-01-17T21:28:33.790Z,89709.41
2023-01-17T21:31:00.452Z,89714.59
2023-01-17T21:33:29.317Z,89704.25
2023-01-17T21:36:05.241Z,89703.22
2023-01-17T21:38:32.768Z,89708.31
2023-01-17T21:40:59.257Z,89712.19
2023-01-17T21:43:25.691Z,89708.56
2023-01-17T21:45:52.328Z,89707.50
2023-01-17T21:48:18.788Z,89705.72
2023-01-17T21:50:45.278Z,89702.66
2023-01-17T21:53:11.772Z,89708.56
2023-01-17T21:55:56.617Z,89707.03
2023-01-17T21:58:41.559Z,89712.19
2023-01-17T22:01:17.756Z,89711.13
2023-01-17T22:03:57.958Z,89723.06
2023-01-17T22:06:27.067Z,89727.22
2023-01-17T22:08:53.766Z,89726.19
2023-01-17T22:11:23.269Z,89724.63
2023-01-17T22:13:50.068Z,89723.81
2023-01-17T22:16:19.574Z,89733.38
2023-01-17T22:18:47.032Z,89726.63
2023-01-17T22:21:22.226Z,89728.16
2023-01-17T22:23:53.811Z,89729.19
2023-01-17T22:26:22.688Z,89734.34
2023-01-17T22:28:49.281Z,89736.94
2023-01-17T22:31:22.375Z,89733.81
2023-01-17T22:34:00.884Z,89729.19
2023-01-17T22:36:27.842Z,89731.78
2023-01-17T22:38:54.888Z,89728.22
2023-01-17T22:41:29.590Z,89724.13
2023-01-17T22:43:58.696Z,89723.63
2023-01-17T22:46:28.506Z,89724.66
2023-01-17T22:48:55.923Z,89732.63
2023-01-17T22:51:25.820Z,89736.56
2023-01-17T22:53:55.371Z,89733.97
2023-01-17T22:56:26.409Z,89733.28
2023-01-17T22:58:53.211Z,89739.44
2023-01-17T23:01:31.013Z,89731.72
2023-01-17T23:04:00.084Z,89734.28
2023-01-17T23:06:37.995Z,89731.16
2023-01-17T23:09:10.607Z,89729.13
2023-01-17T23:11:46.203Z,89723.72
2023-01-17T23:14:18.431Z,89740.44
2023-01-17T23:17:20.111Z,89723.97
2023-01-17T23:19:49.284Z,89720.03
2023-01-17T23:22:22.119Z,89716.44
2023-01-17T23:24:53.803Z,89729.56
2023-01-17T23:27:45.745Z,89726.97
2023-01-17T23:30:16.966Z,89736.50
2023-01-17T23:32:46.451Z,89735.03
2023-01-17T23:35:13.962Z,89734.53
2023-01-17T23:37:58.937Z,89727.84
2023-01-17T23:40:25.368Z,89740.69
2023-01-17T23:43:10.229Z,89736.00
2023-01-17T23:45:38.593Z,89749.41
2023-01-17T23:48:09.385Z,89741.69
2023-01-17T23:50:41.111Z,89751.44
2023-01-17T23:53:08.907Z,89750.06
2023-01-17T23:55:40.331Z,89745.66
2023-01-17T23:58:08.562Z,89753.97
